createdAt,value
2019-01-30T00:00:09.493Z,100985.13
2019-01-30T00:00:49.497Z,100985.65
2019-01-30T00:01:28.212Z,100981.88
2019-01-30T00:02:04.450Z,100981.34
2019-01-30T00:02:40.627Z,100982.69
2019-01-30T00:03:16.960Z,100988.34
2019-01-30T00:03:53.216Z,100985.39
2019-01-30T00:04:29.346Z,100992.66
2019-01-30T00:05:05.539Z,100992.66
2019-01-30T00:05:41.594Z,100988.61
2019-01-30T00:06:17.728Z,100986.72
2019-01-30T00:06:53.822Z,100986.72
2019-01-30T00:07:30.007Z,100981.91
2019-01-30T00:08:06.393Z,100993.75
2019-01-30T00:08:42.532Z,101001.53
2019-01-30T00:09:18.521Z,101002.88
2019-01-30T00:09:54.695Z,100998.03
2019-01-30T00:10:30.848Z,100996.40
2019-01-30T00:11:07.086Z,101000.97
2019-01-30T00:11:43.399Z,100998.30
2019-01-30T00:12:19.490Z,101006.08
2019-01-30T00:12:55.866Z,101006.08
2019-01-30T00:13:32.133Z,101002.03
2019-01-30T00:14:08.442Z,101008.78
2019-01-30T00:14:44.778Z,101008.78
2019-01-30T00:15:20.862Z,101007.70
2019-01-30T00:15:57.204Z,101012.81
2019-01-30T00:16:33.277Z,100998.53
2019-01-30T00:17:09.499Z,101008.73
2019-01-30T00:17:45.556Z,101010.35
2019-01-30T00:18:21.610Z,101010.35
2019-01-30T00:18:57.816Z,101010.88
2019-01-30T00:19:33.872Z,101010.59
2019-01-30T00:20:10.552Z,101010.59
2019-01-30T00:20:46.670Z,101013.55
2019-01-30T00:21:22.736Z,101008.41
2019-01-30T00:21:58.718Z,101011.91
2019-01-30T00:22:34.897Z,101010.88
2019-01-30T00:23:10.961Z,101012.69
2019-01-30T00:23:47.057Z,101012.69
2019-01-30T00:24:23.095Z,101005.73
2019-01-30T00:24:59.348Z,101016.74
2019-01-30T00:25:35.551Z,101009.45
2019-01-30T00:26:11.814Z,101014.56
2019-01-30T00:26:47.934Z,101008.07
2019-01-30T00:27:23.991Z,101008.07
2019-01-30T00:28:00.213Z,101009.16
2019-01-30T00:28:36.586Z,101010.52
2019-01-30T00:29:12.910Z,101005.38
2019-01-30T00:29:49.119Z,101005.38
2019-01-30T00:30:25.430Z,101004.59
2019-01-30T00:31:01.660Z,101006.98
2019-01-30T00:31:37.931Z,101006.98
2019-01-30T00:32:15.133Z,101004.57
2019-01-30T00:32:51.353Z,101005.38
2019-01-30T00:33:27.591Z,101005.38
2019-01-30T00:34:03.688Z,101005.38
2019-01-30T00:34:39.828Z,101007.53
2019-01-30T00:35:16.146Z,101000.80
2019-01-30T00:35:52.445Z,101007.79
2019-01-30T00:36:28.642Z,100994.57
2019-01-30T00:37:04.655Z,101005.64
2019-01-30T00:37:40.983Z,101000.50
2019-01-30T00:38:17.299Z,101003.45
2019-01-30T00:38:53.388Z,100996.47
2019-01-30T00:39:29.471Z,101002.11
2019-01-30T00:40:06.413Z,101005.07
2019-01-30T00:40:42.630Z,100994.29
2019-01-30T00:41:18.851Z,100994.29
2019-01-30T00:41:54.896Z,100994.29
2019-01-30T00:42:31.072Z,100994.29
2019-01-30T00:43:07.195Z,101003.45
2019-01-30T00:43:43.301Z,101004.27
2019-01-30T00:44:19.452Z,101011.25
2019-01-30T00:44:56.074Z,101011.25
2019-01-30T00:45:32.106Z,101004.00
2019-01-30T00:46:08.265Z,101014.73
2019-01-30T00:46:44.461Z,101012.34
2019-01-30T00:47:20.787Z,101010.67
2019-01-30T00:47:57.000Z,101021.69
2019-01-30T00:48:33.247Z,101025.16
2019-01-30T00:49:09.517Z,101025.16
2019-01-30T00:49:45.699Z,101029.22
2019-01-30T00:50:22.036Z,101024.62
2019-01-30T00:50:58.077Z,101028.09
2019-01-30T00:51:34.230Z,101028.36
2019-01-30T00:52:10.328Z,101033.18
2019-01-30T00:52:46.614Z,101028.36
2019-01-30T00:53:22.696Z,101037.47
2019-01-30T00:53:58.898Z,101043.36
2019-01-30T00:54:35.103Z,101043.36
2019-01-30T00:55:11.851Z,101035.25
2019-01-30T00:55:47.913Z,101035.25
2019-01-30T00:56:24.244Z,101049.80
2019-01-30T00:57:00.618Z,101040.63
2019-01-30T00:57:36.713Z,101040.63
2019-01-30T00:58:13.023Z,101044.36
2019-01-30T00:58:49.120Z,101056.14
2019-01-30T00:59:25.210Z,101056.14
2019-01-30T01:00:01.268Z,101052.35
2019-01-30T01:00:37.397Z,101060.69
2019-01-30T01:01:13.536Z,101057.95
2019-01-30T01:01:49.717Z,101057.95
2019-01-30T01:02:26.080Z,101051.20
2019-01-30T01:03:02.089Z,101047.91
2019-01-30T01:03:38.368Z,101054.64
2019-01-30T01:04:14.611Z,101061.81
2019-01-30T01:04:50.884Z,101061.81
2019-01-30T01:05:27.087Z,101058.27
2019-01-30T01:06:03.567Z,101053.13
2019-01-30T01:06:40.227Z,101067.12
2019-01-30T01:07:16.286Z,101071.69
2019-01-30T01:07:52.541Z,101071.69
2019-01-30T01:08:28.861Z,101062.55
2019-01-30T01:09:08.387Z,101067.31
2019-01-30T01:09:44.566Z,101067.31
2019-01-30T01:10:21.019Z,101062.45
2019-01-30T01:10:57.163Z,101071.30
2019-01-30T01:11:33.327Z,101078.28
2019-01-30T01:12:09.499Z,101077.77
2019-01-30T01:12:45.911Z,101076.12
2019-01-30T01:13:22.179Z,101084.45
2019-01-30T01:13:58.224Z,101084.45
2019-01-30T01:14:34.420Z,101090.66
2019-01-30T01:15:13.014Z,101090.66
2019-01-30T01:15:49.237Z,101090.38
2019-01-30T01:16:25.535Z,101090.38
2019-01-30T01:17:01.754Z,101093.84
2019-01-30T01:17:38.167Z,101093.84
2019-01-30T01:18:14.263Z,101098.71
2019-01-30T01:18:50.540Z,101093.55
2019-01-30T01:19:26.607Z,101093.81
2019-01-30T01:20:02.920Z,101095.13
2019-01-30T01:20:39.040Z,101098.13
2019-01-30T01:21:15.040Z,101100.25
2019-01-30T01:21:51.377Z,101103.46
2019-01-30T01:22:27.499Z,101102.37
2019-01-30T01:23:03.614Z,101101.27
2019-01-30T01:23:39.771Z,101097.50
2019-01-30T01:24:15.974Z,101103.98
2019-01-30T01:24:52.069Z,101097.50
2019-01-30T01:25:28.329Z,101099.11
2019-01-30T01:26:04.492Z,101101.02
2019-01-30T01:26:40.699Z,101096.41
2019-01-30T01:27:16.822Z,101103.98
2019-01-30T01:27:52.963Z,101102.91
2019-01-30T01:28:29.235Z,101106.42
2019-01-30T01:29:05.419Z,101103.20
2019-01-30T01:29:41.687Z,101101.56
2019-01-30T01:30:25.172Z,101105.07
2019-01-30T01:30:58.158Z,101107.78
2019-01-30T01:31:35.147Z,101107.23
2019-01-30T01:32:11.367Z,101106.68
2019-01-30T01:32:47.483Z,101110.22
2019-01-30T01:33:25.298Z,101111.29
2019-01-30T01:34:01.305Z,101107.22
2019-01-30T01:34:37.551Z,101104.52
2019-01-30T01:35:14.042Z,101110.98
2019-01-30T01:35:50.243Z,101107.48
2019-01-30T01:36:26.435Z,101107.73
2019-01-30T01:37:02.498Z,101109.93
2019-01-30T01:37:38.592Z,101115.02
2019-01-30T01:38:14.690Z,101115.02
2019-01-30T01:38:50.845Z,101118.23
2019-01-30T01:39:27.036Z,101120.64
2019-01-30T01:40:03.329Z,101117.64
2019-01-30T01:40:39.492Z,101114.94
2019-01-30T01:41:15.721Z,101111.94
2019-01-30T01:41:51.926Z,101108.14
2019-01-30T01:42:28.199Z,101114.86
2019-01-30T01:43:04.502Z,101115.92
2019-01-30T01:43:40.760Z,101112.16
2019-01-30T01:44:16.857Z,101116.47
2019-01-30T01:44:53.097Z,101120.28
2019-01-30T01:45:29.169Z,101115.12
2019-01-30T01:46:05.462Z,101112.67
2019-01-30T01:46:41.627Z,101119.14
2019-01-30T01:47:17.939Z,101118.34
2019-01-30T01:47:54.169Z,101121.84
2019-01-30T01:48:30.427Z,101114.57
2019-01-30T01:49:06.429Z,101121.55
2019-01-30T01:49:42.731Z,101119.39
2019-01-30T01:50:20.888Z,101122.91
2019-01-30T01:50:57.100Z,101119.09
2019-01-30T01:51:33.277Z,101119.35
2019-01-30T01:52:09.425Z,101121.51
2019-01-30T01:52:45.662Z,101122.56
2019-01-30T01:53:21.638Z,101122.27
2019-01-30T01:53:57.816Z,101120.63
2019-01-30T01:54:34.039Z,101125.75
2019-01-30T01:55:10.693Z,101124.91
2019-01-30T01:55:47.027Z,101126.52
2019-01-30T01:56:23.118Z,101125.41
2019-01-30T01:56:59.184Z,101121.69
2019-01-30T01:57:35.177Z,101129.22
2019-01-30T01:58:11.292Z,101127.87
2019-01-30T01:58:47.420Z,101129.73
2019-01-30T01:59:23.685Z,101128.37
2019-01-30T01:59:59.887Z,101126.77
2019-01-30T02:00:36.068Z,101129.18
2019-01-30T02:01:12.254Z,101134.59
2019-01-30T02:01:48.366Z,101129.72
2019-01-30T02:02:24.403Z,101125.67
2019-01-30T02:03:00.736Z,101135.13
2019-01-30T02:03:36.986Z,101129.17
2019-01-30T02:04:13.105Z,101129.42
2019-01-30T02:04:49.390Z,101129.13
2019-01-30T02:05:25.777Z,101126.42
2019-01-30T02:06:01.798Z,101128.03
2019-01-30T02:06:38.078Z,101126.94
2019-01-30T02:07:14.295Z,101127.77
2019-01-30T02:07:50.614Z,101127.77
2019-01-30T02:08:26.721Z,101122.35
2019-01-30T02:09:03.891Z,101122.35
2019-01-30T02:09:40.158Z,101126.67
2019-01-30T02:10:18.221Z,101125.06
2019-01-30T02:10:54.535Z,101123.70
2019-01-30T02:11:30.534Z,101123.41
2019-01-30T02:12:06.839Z,101120.16
2019-01-30T02:12:43.131Z,101119.64
2019-01-30T02:13:19.324Z,101122.35
2019-01-30T02:13:55.454Z,101126.13
2019-01-30T02:14:31.623Z,101123.96
2019-01-30T02:15:09.686Z,101124.52
2019-01-30T02:15:45.806Z,101119.66
2019-01-30T02:16:21.808Z,101124.81
2019-01-30T02:16:57.907Z,101122.66
2019-01-30T02:17:33.943Z,101127.48
2019-01-30T02:18:10.141Z,101128.84
2019-01-30T02:18:46.204Z,101125.31
2019-01-30T02:19:22.469Z,101123.96
2019-01-30T02:19:58.601Z,101125.83
2019-01-30T02:20:35.555Z,101125.53
2019-01-30T02:21:11.585Z,101129.80
2019-01-30T02:21:47.840Z,101129.21
2019-01-30T02:22:23.969Z,101136.23
2019-01-30T02:23:00.117Z,101125.91
2019-01-30T02:23:36.365Z,101125.06
2019-01-30T02:24:12.499Z,101130.48
2019-01-30T02:24:48.577Z,101128.28
2019-01-30T02:25:24.987Z,101127.77
2019-01-30T02:26:01.297Z,101126.08
2019-01-30T02:26:37.511Z,101123.41
2019-01-30T02:27:14.822Z,101127.81
2019-01-30T02:27:50.953Z,101132.94
2019-01-30T02:28:27.106Z,101127.77
2019-01-30T02:29:03.361Z,101133.53
2019-01-30T02:29:39.563Z,101131.29
2019-01-30T02:30:18.547Z,101131.29
2019-01-30T02:30:54.657Z,101132.34
2019-01-30T02:31:31.008Z,101126.89
2019-01-30T02:32:07.074Z,101132.80
2019-01-30T02:32:43.107Z,101134.11
2019-01-30T02:33:19.234Z,101133.56
2019-01-30T02:33:55.372Z,101131.95
2019-01-30T02:34:31.553Z,101135.17
2019-01-30T02:35:07.950Z,101127.89
2019-01-30T02:35:44.084Z,101131.95
2019-01-30T02:36:20.408Z,101133.81
2019-01-30T02:36:59.918Z,101131.61
2019-01-30T02:37:36.074Z,101129.75
2019-01-30T02:38:12.146Z,101131.10
2019-01-30T02:38:48.423Z,101134.02
2019-01-30T02:39:24.718Z,101129.95
2019-01-30T02:40:00.837Z,101134.02
2019-01-30T02:40:36.783Z,101136.19
2019-01-30T02:41:12.900Z,101131.27
2019-01-30T02:41:49.000Z,101135.93
2019-01-30T02:42:25.221Z,101126.70
2019-01-30T02:43:01.487Z,101130.77
2019-01-30T02:43:37.658Z,101134.23
2019-01-30T02:44:13.818Z,101132.03
2019-01-30T02:44:49.954Z,101135.75
2019-01-30T02:45:27.163Z,101130.38
2019-01-30T02:46:03.246Z,101136.25
2019-01-30T02:46:39.418Z,101129.20
2019-01-30T02:47:15.709Z,101130.52
2019-01-30T02:47:51.799Z,101127.50
2019-01-30T02:48:27.917Z,101127.50
2019-01-30T02:49:04.072Z,101120.73
2019-01-30T02:49:40.290Z,101124.70
2019-01-30T02:50:18.168Z,101126.81
2019-01-30T02:50:54.397Z,101122.95
2019-01-30T02:51:30.590Z,101124.23
2019-01-30T02:52:06.896Z,101125.80
2019-01-30T02:52:42.968Z,101123.34
2019-01-30T02:53:19.111Z,101124.05
2019-01-30T02:53:55.349Z,101126.20
2019-01-30T02:54:31.445Z,101124.80
2019-01-30T02:55:09.066Z,101128.52
2019-01-30T02:55:45.159Z,101126.79
2019-01-30T02:56:21.205Z,101123.66
2019-01-30T02:56:57.250Z,101124.30
2019-01-30T02:57:33.273Z,101121.16
2019-01-30T02:58:09.384Z,101125.61
2019-01-30T02:58:45.570Z,101124.20
2019-01-30T02:59:21.740Z,101120.50
2019-01-30T02:59:58.058Z,101122.73
2019-01-30T03:00:35.707Z,101124.48
2019-01-30T03:01:11.862Z,101116.77
2019-01-30T03:01:58.497Z,101113.94
2019-01-30T03:02:34.826Z,101113.52
2019-01-30T03:03:11.153Z,101112.00
2019-01-30T03:03:47.359Z,101111.39
2019-01-30T03:04:23.320Z,101119.78
2019-01-30T03:04:59.539Z,101114.20
2019-01-30T03:05:35.940Z,101113.98
2019-01-30T03:06:12.109Z,101115.95
2019-01-30T03:06:48.387Z,101114.44
2019-01-30T03:07:24.561Z,101115.88
2019-01-30T03:08:00.745Z,101112.97
2019-01-30T03:08:36.902Z,101109.84
2019-01-30T03:09:13.000Z,101115.02
2019-01-30T03:09:49.166Z,101111.19
2019-01-30T03:10:25.672Z,101115.44
2019-01-30T03:11:01.827Z,101119.76
2019-01-30T03:11:38.092Z,101114.81
2019-01-30T03:12:14.175Z,101109.75
2019-01-30T03:12:50.320Z,101109.69
2019-01-30T03:13:26.484Z,101112.89
2019-01-30T03:14:02.749Z,101112.55
2019-01-30T03:14:38.916Z,101109.06
2019-01-30T03:15:15.396Z,101103.83
2019-01-30T03:15:51.468Z,101107.70
2019-01-30T03:16:27.677Z,101111.42
2019-01-30T03:17:04.085Z,101105.22
2019-01-30T03:17:40.136Z,101101.14
2019-01-30T03:18:16.124Z,101103.51
2019-01-30T03:18:52.394Z,101102.39
2019-01-30T03:19:28.601Z,101102.46
2019-01-30T03:20:05.190Z,101108.46
2019-01-30T03:20:41.318Z,101099.78
2019-01-30T03:21:17.388Z,101098.80
2019-01-30T03:21:53.525Z,101101.62
2019-01-30T03:22:29.843Z,101100.59
2019-01-30T03:23:06.105Z,101100.48
2019-01-30T03:23:42.395Z,101095.52
2019-01-30T03:24:18.475Z,101101.59
2019-01-30T03:24:54.543Z,101098.92
2019-01-30T03:25:30.653Z,101097.00
2019-01-30T03:26:06.837Z,101098.32
2019-01-30T03:26:42.862Z,101097.76
2019-01-30T03:27:19.067Z,101103.00
2019-01-30T03:27:55.218Z,101097.87
2019-01-30T03:28:31.355Z,101100.04
2019-01-30T03:29:07.371Z,101102.72
2019-01-30T03:29:43.491Z,101100.55
2019-01-30T03:30:30.638Z,101094.23
2019-01-30T03:31:17.941Z,101098.08
2019-01-30T03:31:46.722Z,101091.15
2019-01-30T03:32:22.932Z,101091.70
2019-01-30T03:32:59.229Z,101094.67
2019-01-30T03:33:35.554Z,101098.99
2019-01-30T03:34:11.761Z,101100.59
2019-01-30T03:34:48.112Z,101094.00
2019-01-30T03:35:24.212Z,101096.16
2019-01-30T03:36:00.496Z,101098.73
2019-01-30T03:36:36.669Z,101092.41
2019-01-30T03:37:13.191Z,101095.86
2019-01-30T03:37:49.304Z,101092.27
2019-01-30T03:38:25.269Z,101095.78
2019-01-30T03:39:01.231Z,101086.50
2019-01-30T03:39:37.414Z,101089.78
2019-01-30T03:40:17.012Z,101092.38
2019-01-30T03:40:52.967Z,101092.38
2019-01-30T03:41:29.094Z,101092.62
2019-01-30T03:42:05.123Z,101088.06
2019-01-30T03:42:41.343Z,101081.98
2019-01-30T03:43:17.887Z,101085.82
2019-01-30T03:43:53.997Z,101088.94
2019-01-30T03:44:30.164Z,101078.70
2019-01-30T03:45:07.480Z,101078.89
2019-01-30T03:45:43.915Z,101082.09
2019-01-30T03:46:20.069Z,101080.91
2019-01-30T03:46:56.192Z,101078.34
2019-01-30T03:47:32.493Z,101076.59
2019-01-30T03:48:08.664Z,101080.91
2019-01-30T03:48:44.753Z,101084.43
2019-01-30T03:49:20.939Z,101076.34
2019-01-30T03:49:57.142Z,101081.06
2019-01-30T03:50:33.299Z,101074.98
2019-01-30T03:51:09.486Z,101079.06
2019-01-30T03:51:45.808Z,101072.41
2019-01-30T03:52:21.981Z,101074.02
2019-01-30T03:52:57.977Z,101076.74
2019-01-30T03:53:34.140Z,101074.26
2019-01-30T03:54:10.438Z,101072.26
2019-01-30T03:54:46.845Z,101068.17
2019-01-30T03:55:22.952Z,101067.94
2019-01-30T03:55:59.051Z,101068.17
2019-01-30T03:56:35.206Z,101071.14
2019-01-30T03:57:11.435Z,101071.63
2019-01-30T03:57:47.514Z,101062.33
2019-01-30T03:58:23.772Z,101061.53
2019-01-30T03:58:59.959Z,101066.90
2019-01-30T03:59:36.210Z,101060.36
2019-01-30T04:00:15.852Z,101065.30
2019-01-30T04:00:51.952Z,101063.21
2019-01-30T04:01:28.052Z,101061.38
2019-01-30T04:02:04.149Z,101062.02
2019-01-30T04:02:40.287Z,101058.65
2019-01-30T04:03:16.348Z,101063.45
2019-01-30T04:03:52.485Z,101055.77
2019-01-30T04:04:28.616Z,101056.01
2019-01-30T04:05:04.838Z,101062.77
2019-01-30T04:05:40.974Z,101058.68
2019-01-30T04:06:17.433Z,101048.59
2019-01-30T04:06:53.360Z,101053.63
2019-01-30T04:07:29.448Z,101053.55
2019-01-30T04:08:05.550Z,101051.88
2019-01-30T04:08:41.651Z,101049.71
2019-01-30T04:09:17.828Z,101044.59
2019-01-30T04:09:53.990Z,101054.84
2019-01-30T04:10:30.069Z,101054.84
2019-01-30T04:11:06.124Z,101044.66
2019-01-30T04:11:42.416Z,101050.02
2019-01-30T04:12:18.722Z,101047.78
2019-01-30T04:12:55.042Z,101050.74
2019-01-30T04:13:31.116Z,101049.62
2019-01-30T04:14:07.163Z,101043.13
2019-01-30T04:14:43.332Z,101039.93
2019-01-30T04:15:19.862Z,101030.64
2019-01-30T04:15:56.009Z,101040.81
2019-01-30T04:16:32.151Z,101034.48
2019-01-30T04:17:08.280Z,101035.05
2019-01-30T04:17:44.682Z,101032.80
2019-01-30T04:18:20.807Z,101030.27
2019-01-30T04:18:57.029Z,101032.98
2019-01-30T04:19:33.142Z,101039.98
2019-01-30T04:20:10.590Z,101032.98
2019-01-30T04:20:46.859Z,101031.44
2019-01-30T04:21:23.038Z,101035.38
2019-01-30T04:21:59.327Z,101027.44
2019-01-30T04:22:35.500Z,101026.31
2019-01-30T04:23:11.818Z,101024.88
2019-01-30T04:23:47.965Z,101021.52
2019-01-30T04:24:24.157Z,101024.88
2019-01-30T04:25:00.284Z,101023.20
2019-01-30T04:25:36.585Z,101015.59
2019-01-30T04:26:12.699Z,101018.64
2019-01-30T04:26:48.898Z,101022.33
2019-01-30T04:27:25.105Z,101009.27
2019-01-30T04:28:01.253Z,101010.08
2019-01-30T04:28:37.449Z,101008.87
2019-01-30T04:29:13.704Z,101011.51
2019-01-30T04:29:49.802Z,101012.22
2019-01-30T04:30:26.863Z,101003.97
2019-01-30T04:31:03.069Z,101007.90
2019-01-30T04:31:39.294Z,101007.66
2019-01-30T04:32:15.446Z,100999.73
2019-01-30T04:32:51.749Z,101001.81
2019-01-30T04:33:27.960Z,101000.45
2019-01-30T04:34:04.033Z,100994.05
2019-01-30T04:34:40.130Z,100996.13
2019-01-30T04:35:16.463Z,100996.92
2019-01-30T04:35:52.543Z,100996.20
2019-01-30T04:36:28.901Z,100995.89
2019-01-30T04:37:04.897Z,100988.84
2019-01-30T04:37:41.133Z,100990.03
2019-01-30T04:38:17.194Z,100986.45
2019-01-30T04:38:53.366Z,100987.81
2019-01-30T04:39:29.540Z,100992.14
2019-01-30T04:40:06.165Z,100989.84
2019-01-30T04:40:42.309Z,100984.06
2019-01-30T04:41:18.600Z,100986.14
2019-01-30T04:41:54.684Z,100988.22
2019-01-30T04:42:30.785Z,100984.37
2019-01-30T04:43:07.000Z,100986.12
2019-01-30T04:43:43.165Z,100984.61
2019-01-30T04:44:19.485Z,100980.20
2019-01-30T04:44:55.686Z,100980.28
2019-01-30T04:45:31.860Z,100985.55
2019-01-30T04:46:08.334Z,100980.11
2019-01-30T04:46:44.469Z,100978.03
2019-01-30T04:47:20.705Z,100979.63
2019-01-30T04:47:56.807Z,100976.44
2019-01-30T04:48:32.883Z,100971.81
2019-01-30T04:49:09.138Z,100979.83
2019-01-30T04:49:45.165Z,100976.70
2019-01-30T04:50:21.442Z,100974.05
2019-01-30T04:50:57.707Z,100978.38
2019-01-30T04:51:34.011Z,100982.14
2019-01-30T04:52:10.339Z,100976.61
2019-01-30T04:52:46.415Z,100975.57
2019-01-30T04:53:22.523Z,100976.37
2019-01-30T04:53:58.570Z,100978.12
2019-01-30T04:54:34.635Z,100980.52
2019-01-30T04:55:10.940Z,100981.47
2019-01-30T04:55:47.173Z,100975.13
2019-01-30T04:56:23.355Z,100974.01
2019-01-30T04:56:59.484Z,100971.14
2019-01-30T04:57:35.634Z,100964.56
2019-01-30T04:58:11.891Z,100968.56
2019-01-30T04:58:48.163Z,100965.45
2019-01-30T04:59:24.183Z,100958.22
2019-01-30T05:00:00.343Z,100959.02
2019-01-30T05:00:36.391Z,100962.78
2019-01-30T05:01:12.542Z,100965.51
2019-01-30T05:01:49.793Z,100959.02
2019-01-30T05:02:26.256Z,100959.26
2019-01-30T05:03:02.423Z,100958.22
2019-01-30T05:03:38.692Z,100957.57
2019-01-30T05:04:14.801Z,100960.95
2019-01-30T05:04:51.071Z,100952.77
2019-01-30T05:05:27.250Z,100953.48
2019-01-30T05:06:03.434Z,100958.37
2019-01-30T05:06:39.459Z,100954.52
2019-01-30T05:07:15.508Z,100948.51
2019-01-30T05:07:51.604Z,100949.07
2019-01-30T05:08:27.793Z,100948.98
2019-01-30T05:09:05.066Z,100946.48
2019-01-30T05:09:41.296Z,100950.58
2019-01-30T05:10:17.505Z,100939.44
2019-01-30T05:10:53.761Z,100945.84
2019-01-30T05:11:29.949Z,100942.69
2019-01-30T05:12:06.177Z,100937.84
2019-01-30T05:12:42.449Z,100944.89
2019-01-30T05:13:18.497Z,100943.30
2019-01-30T05:13:54.577Z,100937.42
2019-01-30T05:14:30.661Z,100934.80
2019-01-30T05:15:08.022Z,100936.42
2019-01-30T05:15:44.314Z,100941.08
2019-01-30T05:16:20.515Z,100933.70
2019-01-30T05:16:56.658Z,100933.23
2019-01-30T05:17:32.859Z,100936.58
2019-01-30T05:18:09.165Z,100934.88
2019-01-30T05:18:45.269Z,100930.56
2019-01-30T05:19:21.473Z,100934.32
2019-01-30T05:19:57.714Z,100921.67
2019-01-30T05:20:34.001Z,100928.72
2019-01-30T05:21:10.231Z,100924.59
2019-01-30T05:21:46.272Z,100927.55
2019-01-30T05:22:22.463Z,100920.97
2019-01-30T05:22:58.587Z,100917.45
2019-01-30T05:23:34.691Z,100912.70
2019-01-30T05:24:10.875Z,100911.25
2019-01-30T05:24:47.192Z,100913.98
2019-01-30T05:25:23.242Z,100915.81
2019-01-30T05:26:00.080Z,100908.91
2019-01-30T05:26:36.281Z,100904.73
2019-01-30T05:27:12.364Z,100906.32
2019-01-30T05:27:48.543Z,100905.90
2019-01-30T05:28:24.800Z,100903.91
2019-01-30T05:29:00.830Z,100902.39
2019-01-30T05:29:36.948Z,100902.77
2019-01-30T05:30:27.419Z,100905.63
2019-01-30T05:31:03.441Z,100898.34
2019-01-30T05:31:39.423Z,100896.75
2019-01-30T05:32:15.696Z,100898.34
2019-01-30T05:32:52.223Z,100897.22
2019-01-30T05:33:28.316Z,100891.20
2019-01-30T05:34:04.555Z,100890.63
2019-01-30T05:34:40.693Z,100894.63
2019-01-30T05:35:17.018Z,100894.06
2019-01-30T05:35:53.294Z,100890.68
2019-01-30T05:36:29.340Z,100887.72
2019-01-30T05:37:05.358Z,100889.02
2019-01-30T05:37:41.570Z,100882.44
2019-01-30T05:38:17.652Z,100885.06
2019-01-30T05:38:54.091Z,100886.09
2019-01-30T05:39:30.194Z,100879.77
2019-01-30T05:40:07.361Z,100875.88
2019-01-30T05:40:43.465Z,100875.41
2019-01-30T05:41:19.650Z,100876.54
2019-01-30T05:41:55.867Z,100879.36
2019-01-30T05:42:32.150Z,100876.97
2019-01-30T05:43:08.197Z,100875.60
2019-01-30T05:43:44.390Z,100875.74
2019-01-30T05:44:20.468Z,100867.66
2019-01-30T05:44:56.692Z,100872.22
2019-01-30T05:45:32.990Z,100867.00
2019-01-30T05:46:09.166Z,100871.32
2019-01-30T05:46:45.920Z,100867.66
2019-01-30T05:47:22.189Z,100872.41
2019-01-30T05:47:58.351Z,100859.20
2019-01-30T05:48:34.602Z,100862.80
2019-01-30T05:49:10.824Z,100864.72
2019-01-30T05:49:47.175Z,100867.75
2019-01-30T05:50:23.417Z,100867.75
2019-01-30T05:50:59.575Z,100864.22
2019-01-30T05:51:35.749Z,100857.51
2019-01-30T05:52:11.917Z,100859.91
2019-01-30T05:52:48.148Z,100857.98
2019-01-30T05:53:24.349Z,100855.25
2019-01-30T05:54:00.498Z,100859.27
2019-01-30T05:54:36.633Z,100857.51
2019-01-30T05:55:13.714Z,100860.94
2019-01-30T05:55:49.912Z,100854.78
2019-01-30T05:56:26.029Z,100857.84
2019-01-30T05:57:02.080Z,100853.33
2019-01-30T05:57:38.171Z,100852.44
2019-01-30T05:58:14.491Z,100848.58
2019-01-30T05:58:50.804Z,100842.70
2019-01-30T05:59:26.936Z,100845.09
2019-01-30T06:00:03.186Z,100840.91
2019-01-30T06:00:42.323Z,100840.11
2019-01-30T06:01:18.553Z,100841.57
2019-01-30T06:01:54.831Z,100836.81
2019-01-30T06:02:30.957Z,100833.69
2019-01-30T06:03:07.054Z,100832.06
2019-01-30T06:03:43.270Z,100834.80
2019-01-30T06:04:19.513Z,100822.79
2019-01-30T06:04:55.748Z,100829.27
2019-01-30T06:05:32.094Z,100830.30
2019-01-30T06:06:08.163Z,100829.73
2019-01-30T06:06:44.288Z,100831.66
2019-01-30T06:07:20.472Z,100826.68
2019-01-30T06:07:56.653Z,100829.41
2019-01-30T06:08:33.018Z,100830.90
2019-01-30T06:09:10.027Z,100829.53
2019-01-30T06:09:46.127Z,100826.71
2019-01-30T06:10:22.404Z,100823.31
2019-01-30T06:10:58.483Z,100828.10
2019-01-30T06:11:34.643Z,100819.02
2019-01-30T06:12:10.914Z,100821.98
2019-01-30T06:12:47.116Z,100823.81
2019-01-30T06:13:23.193Z,100822.22
2019-01-30T06:13:59.341Z,100825.44
2019-01-30T06:14:35.612Z,100826.47
2019-01-30T06:15:12.423Z,100825.44
2019-01-30T06:15:48.658Z,100826.80
2019-01-30T06:16:24.664Z,100823.50
2019-01-30T06:17:00.745Z,100812.67
2019-01-30T06:17:36.818Z,100817.42
2019-01-30T06:18:12.920Z,100815.47
2019-01-30T06:18:49.009Z,100818.09
2019-01-30T06:19:25.124Z,100816.27
2019-01-30T06:20:01.449Z,100813.11
2019-01-30T06:20:37.606Z,100817.89
2019-01-30T06:21:13.819Z,100819.48
2019-01-30T06:21:49.982Z,100812.37
2019-01-30T06:22:26.184Z,100809.08
2019-01-30T06:23:02.277Z,100808.17
2019-01-30T06:23:38.408Z,100811.03
2019-01-30T06:24:14.528Z,100808.23
2019-01-30T06:24:50.581Z,100803.80
2019-01-30T06:25:27.061Z,100804.83
2019-01-30T06:26:03.184Z,100802.56
2019-01-30T06:26:39.228Z,100802.91
2019-01-30T06:27:15.464Z,100803.93
2019-01-30T06:27:51.747Z,100799.84
2019-01-30T06:28:29.362Z,100799.61
2019-01-30T06:29:05.614Z,100796.87
2019-01-30T06:29:41.794Z,100791.53
2019-01-30T06:30:18.950Z,100789.03
2019-01-30T06:30:55.278Z,100782.55
2019-01-30T06:31:31.409Z,100791.63
2019-01-30T06:32:06.569Z,100784.25
2019-01-30T06:32:42.942Z,100786.17
2019-01-30T06:33:19.202Z,100778.86
2019-01-30T06:33:55.593Z,100775.45
2019-01-30T06:34:31.876Z,100774.55
2019-01-30T06:35:08.181Z,100776.06
2019-01-30T06:35:44.424Z,100771.30
2019-01-30T06:36:20.554Z,100777.09
2019-01-30T06:36:56.520Z,100771.88
2019-01-30T06:37:32.588Z,100767.44
2019-01-30T06:38:09.270Z,100772.20
2019-01-30T06:38:45.399Z,100764.36
2019-01-30T06:39:21.600Z,100766.41
2019-01-30T06:39:57.786Z,100768.68
2019-01-30T06:40:35.191Z,100765.00
2019-01-30T06:41:11.398Z,100759.08
2019-01-30T06:41:47.699Z,100754.94
2019-01-30T06:42:23.807Z,100748.81
2019-01-30T06:43:02.426Z,100752.21
2019-01-30T06:43:37.962Z,100750.62
2019-01-30T06:44:14.097Z,100746.19
2019-01-30T06:44:50.297Z,100751.65
2019-01-30T06:45:26.544Z,100749.02
2019-01-30T06:46:02.717Z,100748.45
2019-01-30T06:46:38.859Z,100748.56
2019-01-30T06:47:15.305Z,100744.94
2019-01-30T06:47:51.306Z,100743.67
2019-01-30T06:48:27.421Z,100735.59
2019-01-30T06:49:03.572Z,100738.79
2019-01-30T06:49:39.687Z,100737.76
2019-01-30T06:50:15.957Z,100734.57
2019-01-30T06:50:52.144Z,100737.76
2019-01-30T06:51:28.179Z,100737.42
2019-01-30T06:52:04.380Z,100734.93
2019-01-30T06:52:40.670Z,100739.48
2019-01-30T06:53:16.716Z,100735.05
2019-01-30T06:53:53.042Z,100729.94
2019-01-30T06:54:29.144Z,100731.53